LFCK

Details ICAO LFCK (DCM)
Name Mazamet
Region France
Timezone Europe/Paris (UTC+1.0)
Plans Departing 10
Arriving 20
Stats Elevation 788 ft / 240 m (AMSL)
Location 43.556250° 2.289182°
Runways 1
Magnetic Variation 0.822° E
Sunrise 2017-12-15 07:18:30 UTC / 2017-12-15 08:18:30 Local
Sunset 2017-12-15 16:16:16 UTC / 2017-12-15 17:16:16 Local
Advertisement - Login to hide

Runways

ID Width Length Bearing (true) Bearing (mag) Surface Threshold Offset Overrun Length
14 98 ft / 30 m 5,993 ft / 1,827 m 141.33° 140.51° Concrete 509 ft / 155 m 0 ft / 0 m
32 98 ft / 30 m 5,993 ft / 1,827 m 321.34° 320.52° Concrete 0 ft / 0 m 0 ft / 0 m

Approach Navaids

Runway Type Ident Frequency Range Bearing (true) Bearing (mag) Slope Elevation
14 Localiser EN 111.35 MHz 18 nm / 33 km 141.34° 140.52° - 790 ft / 241 m (AMSL)
14 Glidescope EN 111.35 MHz 10 nm / 19 km 141.33° 140.51° 3.50° 726 ft / 221 m (AMSL)
14 DME EN 111.35 MHz 18 nm / 33 km - - - 726 ft / 221 m (AMSL)

Map

Weather


0- 5 10 15 20 25 30 35+ Temperature / ° C

Clouds and Precipitation
Forecast for 2017-12-15 00:00 UTC. Updated an hour ago

Ground ~20,000 ft ~40,000 ft Winds

METAR

LFCK 150030Z AUTO 26014KT 9999 FEW020 SCT026 BKN031 10/07 Q1009

TAF

Not found

Frequencies

Tower 118.50 MHz CASTRES INFO
Approach 123.85 MHz TOULOUSE APP
Warning: Do not use this data for real-world aviation or navigation. No guarantee of current accuracy is given.